sensor_id;sensor_type;location;lat;lon;timestamp;P1;durP1;ratioP1;P2;durP2;ratioP2
3815;SDS011;1923;48.154;11.536;2023-05-07T00:01:27;8.57;;;5.47;;
3815;SDS011;1923;48.154;11.536;2023-05-07T00:03:57;7.17;;;4.80;;
3815;SDS011;1923;48.154;11.536;2023-05-07T00:06:25;7.57;;;5.30;;
3815;SDS011;1923;48.154;11.536;2023-05-07T00:08:55;7.83;;;5.00;;
3815;SDS011;1923;48.154;11.536;2023-05-07T00:11:24;8.47;;;5.93;;
3815;SDS011;1923;48.154;11.536;2023-05-07T00:13:52;9.00;;;6.43;;
3815;SDS011;1923;48.154;11.536;2023-05-07T00:16:20;9.80;;;5.70;;
3815;SDS011;1923;48.154;11.536;2023-05-07T00:18:48;10.80;;;6.27;;
3815;SDS011;1923;48.154;11.536;2023-05-07T00:21:17;11.10;;;6.03;;
3815;SDS011;1923;48.154;11.536;2023-05-07T00:23:46;8.77;;;5.93;;
3815;SDS011;1923;48.154;11.536;2023-05-07T00:26:14;10.00;;;6.33;;
3815;SDS011;1923;48.154;11.536;2023-05-07T00:28:42;10.00;;;6.00;;
3815;SDS011;1923;48.154;11.536;2023-05-07T00:31:12;7.83;;;5.83;;
3815;SDS011;1923;48.154;11.536;2023-05-07T00:33:40;9.70;;;5.60;;
3815;SDS011;1923;48.154;11.536;2023-05-07T00:36:08;10.20;;;6.70;;
3815;SDS011;1923;48.154;11.536;2023-05-07T00:38:37;12.43;;;6.90;;
3815;SDS011;1923;48.154;11.536;2023-05-07T00:41:05;9.00;;;6.20;;
3815;SDS011;1923;48.154;11.536;2023-05-07T00:43:33;8.43;;;6.30;;
3815;SDS011;1923;48.154;11.536;2023-05-07T00:46:01;9.43;;;7.03;;
3815;SDS011;1923;48.154;11.536;2023-05-07T00:48:30;10.30;;;6.50;;
3815;SDS011;1923;48.154;11.536;2023-05-07T00:50:58;9.70;;;6.23;;
3815;SDS011;1923;48.154;11.536;2023-05-07T00:53:26;10.20;;;5.97;;
3815;SDS011;1923;48.154;11.536;2023-05-07T00:55:56;10.10;;;5.80;;
3815;SDS011;1923;48.154;11.536;2023-05-07T00:58:24;10.30;;;6.27;;
3815;SDS011;1923;48.154;11.536;2023-05-07T01:00:52;16.60;;;7.57;;
3815;SDS011;1923;48.154;11.536;2023-05-07T01:03:20;8.87;;;6.40;;
3815;SDS011;1923;48.154;11.536;2023-05-07T01:05:48;9.93;;;7.00;;
3815;SDS011;1923;48.154;11.536;2023-05-07T01:08:18;9.57;;;6.03;;
3815;SDS011;1923;48.154;11.536;2023-05-07T01:10:47;14.60;;;6.90;;
3815;SDS011;1923;48.154;11.536;2023-05-07T01:13:17;9.90;;;6.50;;
3815;SDS011;1923;48.154;11.536;2023-05-07T01:15:47;10.53;;;6.97;;
3815;SDS011;1923;48.154;11.536;2023-05-07T01:18:15;12.60;;;7.03;;
3815;SDS011;1923;48.154;11.536;2023-05-07T01:20:43;9.50;;;6.00;;
3815;SDS011;1923;48.154;11.536;2023-05-07T01:23:13;11.57;;;7.00;;
3815;SDS011;1923;48.154;11.536;2023-05-07T01:25:42;9.80;;;6.70;;
3815;SDS011;1923;48.154;11.536;2023-05-07T01:28:10;11.30;;;6.60;;
3815;SDS011;1923;48.154;11.536;2023-05-07T01:30:38;10.70;;;7.23;;
3815;SDS011;1923;48.154;11.536;2023-05-07T01:33:10;9.70;;;6.00;;
3815;SDS011;1923;48.154;11.536;2023-05-07T01:35:41;10.83;;;6.83;;
3815;SDS011;1923;48.154;11.536;2023-05-07T01:38:13;13.70;;;7.50;;
3815;SDS011;1923;48.154;11.536;2023-05-07T01:40:42;10.80;;;6.37;;
3815;SDS011;1923;48.154;11.536;2023-05-07T01:43:10;7.37;;;5.93;;
3815;SDS011;1923;48.154;11.536;2023-05-07T01:45:38;7.87;;;6.00;;
3815;SDS011;1923;48.154;11.536;2023-05-07T01:48:10;11.10;;;7.43;;
3815;SDS011;1923;48.154;11.536;2023-05-07T01:50:40;9.73;;;6.70;;
3815;SDS011;1923;48.154;11.536;2023-05-07T01:53:08;8.07;;;6.23;;
3815;SDS011;1923;48.154;11.536;2023-05-07T01:55:38;11.70;;;7.40;;
3815;SDS011;1923;48.154;11.536;2023-05-07T01:58:06;8.93;;;6.40;;
3815;SDS011;1923;48.154;11.536;2023-05-07T02:00:34;9.20;;;6.17;;
3815;SDS011;1923;48.154;11.536;2023-05-07T02:03:02;8.90;;;6.43;;
3815;SDS011;1923;48.154;11.536;2023-05-07T02:05:30;10.07;;;6.33;;
3815;SDS011;1923;48.154;11.536;2023-05-07T02:07:58;8.27;;;6.30;;
3815;SDS011;1923;48.154;11.536;2023-05-07T02:10:26;9.83;;;6.03;;
3815;SDS011;1923;48.154;11.536;2023-05-07T02:12:56;10.60;;;5.70;;
3815;SDS011;1923;48.154;11.536;2023-05-07T02:15:24;10.00;;;6.17;;
3815;SDS011;1923;48.154;11.536;2023-05-07T02:17:59;8.90;;;6.77;;
3815;SDS011;1923;48.154;11.536;2023-05-07T02:20:28;12.47;;;6.30;;
3815;SDS011;1923;48.154;11.536;2023-05-07T02:22:56;8.50;;;6.40;;
3815;SDS011;1923;48.154;11.536;2023-05-07T02:25:24;10.40;;;6.27;;
3815;SDS011;1923;48.154;11.536;2023-05-07T02:27:52;7.17;;;6.27;;
3815;SDS011;1923;48.154;11.536;2023-05-07T02:30:25;8.23;;;6.07;;
3815;SDS011;1923;48.154;11.536;2023-05-07T02:32:53;9.93;;;6.30;;
3815;SDS011;1923;48.154;11.536;2023-05-07T02:35:21;8.40;;;5.87;;
3815;SDS011;1923;48.154;11.536;2023-05-07T02:37:49;10.93;;;7.30;;
3815;SDS011;1923;48.154;11.536;2023-05-07T02:40:17;6.63;;;5.50;;
3815;SDS011;1923;48.154;11.536;2023-05-07T02:42:45;6.63;;;5.40;;
3815;SDS011;1923;48.154;11.536;2023-05-07T02:45:13;8.60;;;5.93;;
3815;SDS011;1923;48.154;11.536;2023-05-07T02:47:43;9.07;;;5.43;;
3815;SDS011;1923;48.154;11.536;2023-05-07T02:50:11;8.07;;;6.10;;
3815;SDS011;1923;48.154;11.536;2023-05-07T02:52:39;7.90;;;5.83;;
3815;SDS011;1923;48.154;11.536;2023-05-07T02:55:07;8.93;;;5.87;;
3815;SDS011;1923;48.154;11.536;2023-05-07T02:57:36;8.57;;;5.77;;
3815;SDS011;1923;48.154;11.536;2023-05-07T03:00:10;9.83;;;6.13;;
3815;SDS011;1923;48.154;11.536;2023-05-07T03:02:39;8.60;;;5.97;;
3815;SDS011;1923;48.154;11.536;2023-05-07T03:05:09;7.63;;;6.10;;
3815;SDS011;1923;48.154;11.536;2023-05-07T03:07:37;7.47;;;5.23;;
3815;SDS011;1923;48.154;11.536;2023-05-07T03:10:05;9.23;;;5.50;;
3815;SDS011;1923;48.154;11.536;2023-05-07T03:12:34;7.47;;;5.47;;
3815;SDS011;1923;48.154;11.536;2023-05-07T03:15:02;7.37;;;5.20;;
3815;SDS011;1923;48.154;11.536;2023-05-07T03:17:30;7.80;;;4.87;;
3815;SDS011;1923;48.154;11.536;2023-05-07T03:19:58;7.00;;;5.27;;
3815;SDS011;1923;48.154;11.536;2023-05-07T03:22:28;7.13;;;5.40;;
3815;SDS011;1923;48.154;11.536;2023-05-07T03:24:56;8.60;;;5.27;;
3815;SDS011;1923;48.154;11.536;2023-05-07T03:27:24;6.40;;;5.30;;
3815;SDS011;1923;48.154;11.536;2023-05-07T03:29:52;9.30;;;5.47;;
3815;SDS011;1923;48.154;11.536;2023-05-07T03:32:20;6.60;;;4.83;;
3815;SDS011;1923;48.154;11.536;2023-05-07T03:34:48;6.20;;;5.40;;
3815;SDS011;1923;48.154;11.536;2023-05-07T03:37:16;7.13;;;5.30;;
3815;SDS011;1923;48.154;11.536;2023-05-07T03:39:45;8.53;;;5.87;;
3815;SDS011;1923;48.154;11.536;2023-05-07T03:42:14;7.03;;;5.00;;
3815;SDS011;1923;48.154;11.536;2023-05-07T03:44:43;8.10;;;4.80;;
3815;SDS011;1923;48.154;11.536;2023-05-07T03:47:10;6.10;;;4.90;;
3815;SDS011;1923;48.154;11.536;2023-05-07T03:49:39;8.03;;;5.63;;
3815;SDS011;1923;48.154;11.536;2023-05-07T03:52:07;7.20;;;5.30;;
3815;SDS011;1923;48.154;11.536;2023-05-07T03:54:35;7.70;;;5.23;;
3815;SDS011;1923;48.154;11.536;2023-05-07T03:57:05;7.63;;;5.10;;
3815;SDS011;1923;48.154;11.536;2023-05-07T03:59:32;7.93;;;5.33;;
3815;SDS011;1923;48.154;11.536;2023-05-07T04:02:00;7.50;;;5.03;;
3815;SDS011;1923;48.154;11.536;2023-05-07T04:04:31;9.10;;;6.10;;
3815;SDS011;1923;48.154;11.536;2023-05-07T04:06:59;8.13;;;5.50;;
3815;SDS011;1923;48.154;11.536;2023-05-07T04:09:27;10.30;;;6.47;;
3815;SDS011;1923;48.154;11.536;2023-05-07T04:11:55;9.57;;;6.30;;
3815;SDS011;1923;48.154;11.536;2023-05-07T04:14:25;9.27;;;5.70;;
3815;SDS011;1923;48.154;11.536;2023-05-07T04:16:53;6.37;;;5.43;;
3815;SDS011;1923;48.154;11.536;2023-05-07T04:19:21;6.67;;;5.57;;
3815;SDS011;1923;48.154;11.536;2023-05-07T04:21:49;6.47;;;5.00;;
3815;SDS011;1923;48.154;11.536;2023-05-07T04:24:17;6.33;;;5.60;;
3815;SDS011;1923;48.154;11.536;2023-05-07T04:26:45;6.50;;;4.33;;
3815;SDS011;1923;48.154;11.536;2023-05-07T04:29:13;8.03;;;4.90;;
3815;SDS011;1923;48.154;11.536;2023-05-07T04:31:43;8.97;;;5.87;;
3815;SDS011;1923;48.154;11.536;2023-05-07T04:34:11;4.77;;;4.10;;
3815;SDS011;1923;48.154;11.536;2023-05-07T04:36:39;5.43;;;4.20;;
3815;SDS011;1923;48.154;11.536;2023-05-07T04:39:07;9.30;;;6.07;;
3815;SDS011;1923;48.154;11.536;2023-05-07T04:41:36;5.33;;;4.10;;
3815;SDS011;1923;48.154;11.536;2023-05-07T04:44:04;7.83;;;5.07;;
3815;SDS011;1923;48.154;11.536;2023-05-07T04:46:32;5.50;;;4.37;;
3815;SDS011;1923;48.154;11.536;2023-05-07T04:49:02;5.27;;;4.30;;
3815;SDS011;1923;48.154;11.536;2023-05-07T04:51:30;6.80;;;4.27;;
3815;SDS011;1923;48.154;11.536;2023-05-07T04:53:59;6.97;;;4.60;;
3815;SDS011;1923;48.154;11.536;2023-05-07T04:56:27;5.63;;;4.17;;
3815;SDS011;1923;48.154;11.536;2023-05-07T04:58:56;4.20;;;3.80;;
3815;SDS011;1923;48.154;11.536;2023-05-07T05:01:24;5.30;;;4.00;;
3815;SDS011;1923;48.154;11.536;2023-05-07T05:03:52;5.13;;;4.37;;
3815;SDS011;1923;48.154;11.536;2023-05-07T05:06:21;6.30;;;4.47;;
3815;SDS011;1923;48.154;11.536;2023-05-07T05:08:49;3.97;;;3.53;;
3815;SDS011;1923;48.154;11.536;2023-05-07T05:11:17;3.87;;;3.37;;
3815;SDS011;1923;48.154;11.536;2023-05-07T05:13:45;6.60;;;3.93;;
3815;SDS011;1923;48.154;11.536;2023-05-07T05:16:15;4.20;;;3.77;;
3815;SDS011;1923;48.154;11.536;2023-05-07T05:18:43;6.13;;;4.00;;
3815;SDS011;1923;48.154;11.536;2023-05-07T05:21:11;4.60;;;3.40;;
3815;SDS011;1923;48.154;11.536;2023-05-07T05:23:40;5.07;;;3.50;;
3815;SDS011;1923;48.154;11.536;2023-05-07T05:26:08;3.53;;;3.13;;
3815;SDS011;1923;48.154;11.536;2023-05-07T05:28:36;5.40;;;3.77;;
3815;SDS011;1923;48.154;11.536;2023-05-07T05:31:04;4.27;;;3.70;;
3815;SDS011;1923;48.154;11.536;2023-05-07T05:33:33;4.60;;;3.97;;
3815;SDS011;1923;48.154;11.536;2023-05-07T05:36:01;4.10;;;3.00;;
3815;SDS011;1923;48.154;11.536;2023-05-07T05:38:29;5.70;;;3.97;;
3815;SDS011;1923;48.154;11.536;2023-05-07T05:40:58;3.73;;;3.40;;
3815;SDS011;1923;48.154;11.536;2023-05-07T05:43:26;7.13;;;4.07;;
3815;SDS011;1923;48.154;11.536;2023-05-07T05:45:55;5.60;;;4.47;;
3815;SDS011;1923;48.154;11.536;2023-05-07T05:48:23;6.60;;;4.23;;
3815;SDS011;1923;48.154;11.536;2023-05-07T05:50:51;4.73;;;3.70;;
3815;SDS011;1923;48.154;11.536;2023-05-07T05:53:19;5.77;;;4.73;;
3815;SDS011;1923;48.154;11.536;2023-05-07T05:55:47;5.30;;;3.70;;
3815;SDS011;1923;48.154;11.536;2023-05-07T05:58:17;3.90;;;3.50;;
3815;SDS011;1923;48.154;11.536;2023-05-07T06:00:45;4.83;;;4.00;;
3815;SDS011;1923;48.154;11.536;2023-05-07T06:03:14;5.03;;;3.80;;
3815;SDS011;1923;48.154;11.536;2023-05-07T06:05:42;4.93;;;3.90;;
3815;SDS011;1923;48.154;11.536;2023-05-07T06:08:10;4.63;;;3.17;;
3815;SDS011;1923;48.154;11.536;2023-05-07T06:10:38;4.70;;;3.70;;
3815;SDS011;1923;48.154;11.536;2023-05-07T06:13:07;5.20;;;4.10;;
3815;SDS011;1923;48.154;11.536;2023-05-07T06:15:36;4.20;;;3.67;;
3815;SDS011;1923;48.154;11.536;2023-05-07T06:18:04;6.30;;;3.83;;
3815;SDS011;1923;48.154;11.536;2023-05-07T06:20:32;11.23;;;4.00;;
3815;SDS011;1923;48.154;11.536;2023-05-07T06:23:00;7.03;;;4.33;;
3815;SDS011;1923;48.154;11.536;2023-05-07T06:25:28;9.77;;;3.93;;
3815;SDS011;1923;48.154;11.536;2023-05-07T06:27:56;8.77;;;3.37;;
3815;SDS011;1923;48.154;11.536;2023-05-07T06:30:24;3.80;;;2.80;;
3815;SDS011;1923;48.154;11.536;2023-05-07T06:32:54;3.90;;;2.80;;
3815;SDS011;1923;48.154;11.536;2023-05-07T06:35:22;4.20;;;3.50;;
3815;SDS011;1923;48.154;11.536;2023-05-07T06:37:50;4.23;;;3.03;;
3815;SDS011;1923;48.154;11.536;2023-05-07T06:40:18;3.47;;;2.47;;
3815;SDS011;1923;48.154;11.536;2023-05-07T06:42:46;4.77;;;2.60;;
3815;SDS011;1923;48.154;11.536;2023-05-07T06:45:14;4.43;;;2.57;;
3815;SDS011;1923;48.154;11.536;2023-05-07T06:47:42;4.60;;;2.80;;
3815;SDS011;1923;48.154;11.536;2023-05-07T06:50:12;5.80;;;2.47;;
3815;SDS011;1923;48.154;11.536;2023-05-07T06:52:42;3.30;;;2.50;;
3815;SDS011;1923;48.154;11.536;2023-05-07T06:55:10;2.70;;;2.10;;
3815;SDS011;1923;48.154;11.536;2023-05-07T06:57:38;3.03;;;2.50;;
3815;SDS011;1923;48.154;11.536;2023-05-07T07:00:07;3.60;;;2.60;;
3815;SDS011;1923;48.154;11.536;2023-05-07T07:02:36;2.70;;;2.20;;
3815;SDS011;1923;48.154;11.536;2023-05-07T07:05:05;3.23;;;2.43;;
3815;SDS011;1923;48.154;11.536;2023-05-07T07:07:35;3.53;;;1.90;;
3815;SDS011;1923;48.154;11.536;2023-05-07T07:10:03;4.80;;;2.50;;
3815;SDS011;1923;48.154;11.536;2023-05-07T07:12:32;3.20;;;1.90;;
3815;SDS011;1923;48.154;11.536;2023-05-07T07:15:00;2.13;;;1.93;;
3815;SDS011;1923;48.154;11.536;2023-05-07T07:17:28;2.83;;;2.23;;
3815;SDS011;1923;48.154;11.536;2023-05-07T07:19:56;2.40;;;2.00;;
3815;SDS011;1923;48.154;11.536;2023-05-07T07:22:24;5.20;;;2.83;;
3815;SDS011;1923;48.154;11.536;2023-05-07T07:24:53;2.80;;;2.57;;
3815;SDS011;1923;48.154;11.536;2023-05-07T07:27:22;3.00;;;2.27;;
3815;SDS011;1923;48.154;11.536;2023-05-07T07:29:50;3.27;;;2.67;;
3815;SDS011;1923;48.154;11.536;2023-05-07T07:32:18;3.05;;;2.35;;
3815;SDS011;1923;48.154;11.536;2023-05-07T07:34:46;2.90;;;2.20;;
3815;SDS011;1923;48.154;11.536;2023-05-07T07:37:14;2.27;;;2.00;;
3815;SDS011;1923;48.154;11.536;2023-05-07T07:39:42;2.80;;;2.40;;
3815;SDS011;1923;48.154;11.536;2023-05-07T07:42:12;3.07;;;2.27;;
3815;SDS011;1923;48.154;11.536;2023-05-07T07:44:40;2.47;;;2.20;;
3815;SDS011;1923;48.154;11.536;2023-05-07T07:47:07;2.50;;;2.30;;
3815;SDS011;1923;48.154;11.536;2023-05-07T07:49:36;2.70;;;2.10;;
3815;SDS011;1923;48.154;11.536;2023-05-07T07:52:05;4.90;;;2.97;;
3815;SDS011;1923;48.154;11.536;2023-05-07T07:54:33;5.13;;;2.60;;
3815;SDS011;1923;48.154;11.536;2023-05-07T07:57:01;3.77;;;2.37;;
3815;SDS011;1923;48.154;11.536;2023-05-07T07:59:30;2.50;;;2.17;;
3815;SDS011;1923;48.154;11.536;2023-05-07T08:01:58;2.40;;;2.20;;
3815;SDS011;1923;48.154;11.536;2023-05-07T08:04:26;2.53;;;1.80;;
3815;SDS011;1923;48.154;11.536;2023-05-07T08:06:54;2.30;;;2.10;;
3815;SDS011;1923;48.154;11.536;2023-05-07T08:09:22;3.67;;;2.20;;
3815;SDS011;1923;48.154;11.536;2023-05-07T08:11:50;2.53;;;2.00;;
3815;SDS011;1923;48.154;11.536;2023-05-07T08:14:18;2.50;;;2.27;;
3815;SDS011;1923;48.154;11.536;2023-05-07T08:16:48;2.90;;;2.30;;
3815;SDS011;1923;48.154;11.536;2023-05-07T08:19:16;3.80;;;2.27;;
3815;SDS011;1923;48.154;11.536;2023-05-07T08:21:44;2.13;;;1.93;;
3815;SDS011;1923;48.154;11.536;2023-05-07T08:24:13;3.10;;;2.13;;
3815;SDS011;1923;48.154;11.536;2023-05-07T08:26:42;2.85;;;2.40;;
3815;SDS011;1923;48.154;11.536;2023-05-07T08:29:13;2.57;;;2.10;;
3815;SDS011;1923;48.154;11.536;2023-05-07T08:31:41;3.47;;;2.70;;
3815;SDS011;1923;48.154;11.536;2023-05-07T08:34:10;3.13;;;2.20;;
3815;SDS011;1923;48.154;11.536;2023-05-07T08:36:38;2.03;;;1.80;;
3815;SDS011;1923;48.154;11.536;2023-05-07T08:39:07;2.70;;;1.93;;
3815;SDS011;1923;48.154;11.536;2023-05-07T08:41:36;3.17;;;2.23;;
3815;SDS011;1923;48.154;11.536;2023-05-07T08:44:04;4.10;;;2.17;;
3815;SDS011;1923;48.154;11.536;2023-05-07T08:46:39;2.77;;;2.23;;
3815;SDS011;1923;48.154;11.536;2023-05-07T08:49:08;5.47;;;2.03;;
3815;SDS011;1923;48.154;11.536;2023-05-07T08:51:38;2.80;;;2.27;;
3815;SDS011;1923;48.154;11.536;2023-05-07T08:54:06;2.87;;;2.13;;
3815;SDS011;1923;48.154;11.536;2023-05-07T08:56:34;2.23;;;1.80;;
3815;SDS011;1923;48.154;11.536;2023-05-07T08:59:02;2.23;;;2.00;;
3815;SDS011;1923;48.154;11.536;2023-05-07T09:01:30;2.40;;;2.00;;
3815;SDS011;1923;48.154;11.536;2023-05-07T09:03:58;4.60;;;2.10;;
3815;SDS011;1923;48.154;11.536;2023-05-07T09:06:28;3.80;;;2.27;;
3815;SDS011;1923;48.154;11.536;2023-05-07T09:08:56;2.37;;;2.10;;
3815;SDS011;1923;48.154;11.536;2023-05-07T09:11:27;2.30;;;1.80;;
3815;SDS011;1923;48.154;11.536;2023-05-07T09:13:55;2.40;;;1.80;;
3815;SDS011;1923;48.154;11.536;2023-05-07T09:16:29;1.73;;;1.60;;
3815;SDS011;1923;48.154;11.536;2023-05-07T09:18:58;2.23;;;1.70;;
3815;SDS011;1923;48.154;11.536;2023-05-07T09:21:28;2.73;;;1.80;;
3815;SDS011;1923;48.154;11.536;2023-05-07T09:23:57;3.30;;;2.30;;
3815;SDS011;1923;48.154;11.536;2023-05-07T09:26:25;2.10;;;1.90;;
3815;SDS011;1923;48.154;11.536;2023-05-07T09:28:54;3.33;;;2.03;;
3815;SDS011;1923;48.154;11.536;2023-05-07T09:31:22;2.30;;;1.90;;
3815;SDS011;1923;48.154;11.536;2023-05-07T09:33:52;2.73;;;1.90;;
3815;SDS011;1923;48.154;11.536;2023-05-07T09:36:22;2.37;;;1.93;;
3815;SDS011;1923;48.154;11.536;2023-05-07T09:38:51;2.20;;;1.47;;
3815;SDS011;1923;48.154;11.536;2023-05-07T09:41:19;1.67;;;1.30;;
3815;SDS011;1923;48.154;11.536;2023-05-07T09:43:47;3.83;;;2.42;;
3815;SDS011;1923;48.154;11.536;2023-05-07T09:46:23;2.03;;;1.50;;
3815;SDS011;1923;48.154;11.536;2023-05-07T09:48:55;2.67;;;1.80;;
3815;SDS011;1923;48.154;11.536;2023-05-07T09:51:25;1.70;;;1.40;;
3815;SDS011;1923;48.154;11.536;2023-05-07T09:53:59;2.90;;;1.97;;
3815;SDS011;1923;48.154;11.536;2023-05-07T09:56:29;2.00;;;1.37;;
3815;SDS011;1923;48.154;11.536;2023-05-07T09:58:58;2.13;;;1.80;;
3815;SDS011;1923;48.154;11.536;2023-05-07T10:01:27;2.00;;;1.30;;
3815;SDS011;1923;48.154;11.536;2023-05-07T10:03:58;2.97;;;1.53;;
3815;SDS011;1923;48.154;11.536;2023-05-07T10:06:27;2.78;;;1.60;;
3815;SDS011;1923;48.154;11.536;2023-05-07T10:08:56;3.60;;;2.03;;
3815;SDS011;1923;48.154;11.536;2023-05-07T10:11:26;3.10;;;1.90;;
3815;SDS011;1923;48.154;11.536;2023-05-07T10:13:55;2.30;;;1.50;;
3815;SDS011;1923;48.154;11.536;2023-05-07T10:16:24;2.13;;;1.60;;
3815;SDS011;1923;48.154;11.536;2023-05-07T10:18:55;1.33;;;1.13;;
3815;SDS011;1923;48.154;11.536;2023-05-07T10:21:24;2.10;;;1.60;;
3815;SDS011;1923;48.154;11.536;2023-05-07T10:23:57;1.70;;;1.40;;
3815;SDS011;1923;48.154;11.536;2023-05-07T10:26:32;1.70;;;1.40;;
3815;SDS011;1923;48.154;11.536;2023-05-07T10:29:03;4.37;;;1.80;;
3815;SDS011;1923;48.154;11.536;2023-05-07T10:31:42;1.43;;;1.30;;
3815;SDS011;1923;48.154;11.536;2023-05-07T10:34:21;1.80;;;0.97;;
3815;SDS011;1923;48.154;11.536;2023-05-07T10:36:51;2.33;;;1.60;;
3815;SDS011;1923;48.154;11.536;2023-05-07T10:39:22;1.70;;;1.50;;
3815;SDS011;1923;48.154;11.536;2023-05-07T10:41:50;2.17;;;1.30;;
3815;SDS011;1923;48.154;11.536;2023-05-07T10:44:25;1.40;;;1.20;;
3815;SDS011;1923;48.154;11.536;2023-05-07T10:47:04;1.97;;;1.50;;
3815;SDS011;1923;48.154;11.536;2023-05-07T10:49:36;3.93;;;1.27;;
3815;SDS011;1923;48.154;11.536;2023-05-07T10:52:11;1.93;;;1.43;;
3815;SDS011;1923;48.154;11.536;2023-05-07T10:54:42;1.60;;;1.50;;
3815;SDS011;1923;48.154;11.536;2023-05-07T11:00:01;1.90;;;1.70;;
3815;SDS011;1923;48.154;11.536;2023-05-07T11:05:34;3.53;;;1.83;;
3815;SDS011;1923;48.154;11.536;2023-05-07T11:08:04;1.10;;;0.80;;
3815;SDS011;1923;48.154;11.536;2023-05-07T11:10:50;2.63;;;1.63;;
3815;SDS011;1923;48.154;11.536;2023-05-07T11:16:16;2.17;;;1.53;;
3815;SDS011;1923;48.154;11.536;2023-05-07T11:18:48;3.27;;;1.73;;
3815;SDS011;1923;48.154;11.536;2023-05-07T11:21:31;3.30;;;1.97;;
3815;SDS011;1923;48.154;11.536;2023-05-07T11:24:00;4.43;;;2.10;;
3815;SDS011;1923;48.154;11.536;2023-05-07T11:26:31;2.23;;;1.60;;
3815;SDS011;1923;48.154;11.536;2023-05-07T11:29:13;2.23;;;1.73;;
3815;SDS011;1923;48.154;11.536;2023-05-07T11:31:48;2.80;;;1.60;;
3815;SDS011;1923;48.154;11.536;2023-05-07T11:34:20;3.57;;;2.37;;
3815;SDS011;1923;48.154;11.536;2023-05-07T11:36:49;2.10;;;1.77;;
3815;SDS011;1923;48.154;11.536;2023-05-07T11:39:24;1.83;;;1.47;;
3815;SDS011;1923;48.154;11.536;2023-05-07T11:41:58;2.20;;;1.80;;
3815;SDS011;1923;48.154;11.536;2023-05-07T11:44:39;2.13;;;1.70;;
3815;SDS011;1923;48.154;11.536;2023-05-07T11:47:09;2.57;;;1.80;;
3815;SDS011;1923;48.154;11.536;2023-05-07T11:49:37;2.23;;;1.60;;
3815;SDS011;1923;48.154;11.536;2023-05-07T11:52:06;2.50;;;1.80;;
3815;SDS011;1923;48.154;11.536;2023-05-07T11:54:35;2.73;;;1.67;;
3815;SDS011;1923;48.154;11.536;2023-05-07T11:57:05;2.50;;;1.50;;
3815;SDS011;1923;48.154;11.536;2023-05-07T11:59:38;2.60;;;1.63;;
3815;SDS011;1923;48.154;11.536;2023-05-07T12:02:07;2.10;;;1.80;;
3815;SDS011;1923;48.154;11.536;2023-05-07T12:04:35;3.17;;;1.83;;
3815;SDS011;1923;48.154;11.536;2023-05-07T12:07:05;3.17;;;1.90;;
3815;SDS011;1923;48.154;11.536;2023-05-07T12:09:33;2.50;;;1.83;;
3815;SDS011;1923;48.154;11.536;2023-05-07T12:12:06;2.70;;;1.73;;
3815;SDS011;1923;48.154;11.536;2023-05-07T12:14:37;2.50;;;1.80;;
3815;SDS011;1923;48.154;11.536;2023-05-07T12:17:05;2.63;;;1.63;;
3815;SDS011;1923;48.154;11.536;2023-05-07T12:19:34;2.03;;;1.70;;
3815;SDS011;1923;48.154;11.536;2023-05-07T12:22:03;1.90;;;1.47;;
3815;SDS011;1923;48.154;11.536;2023-05-07T12:24:42;2.50;;;2.00;;
3815;SDS011;1923;48.154;11.536;2023-05-07T12:27:12;3.97;;;2.17;;
3815;SDS011;1923;48.154;11.536;2023-05-07T12:29:43;3.43;;;2.10;;
3815;SDS011;1923;48.154;11.536;2023-05-07T12:32:13;2.37;;;1.80;;
3815;SDS011;1923;48.154;11.536;2023-05-07T12:34:41;2.10;;;1.70;;
3815;SDS011;1923;48.154;11.536;2023-05-07T12:37:11;2.70;;;1.90;;
3815;SDS011;1923;48.154;11.536;2023-05-07T12:39:43;3.17;;;2.30;;
3815;SDS011;1923;48.154;11.536;2023-05-07T12:42:16;4.90;;;3.10;;
3815;SDS011;1923;48.154;11.536;2023-05-07T12:44:49;2.03;;;1.50;;
3815;SDS011;1923;48.154;11.536;2023-05-07T12:47:18;2.90;;;1.90;;
3815;SDS011;1923;48.154;11.536;2023-05-07T12:49:47;2.00;;;1.53;;
3815;SDS011;1923;48.154;11.536;2023-05-07T12:52:15;3.57;;;2.27;;
3815;SDS011;1923;48.154;11.536;2023-05-07T12:54:43;1.60;;;1.50;;
3815;SDS011;1923;48.154;11.536;2023-05-07T12:57:12;3.13;;;1.57;;
3815;SDS011;1923;48.154;11.536;2023-05-07T12:59:41;2.27;;;1.60;;
3815;SDS011;1923;48.154;11.536;2023-05-07T13:02:09;1.60;;;1.20;;
3815;SDS011;1923;48.154;11.536;2023-05-07T13:04:37;3.03;;;1.80;;
3815;SDS011;1923;48.154;11.536;2023-05-07T13:07:05;2.60;;;1.63;;
3815;SDS011;1923;48.154;11.536;2023-05-07T13:09:34;3.83;;;2.07;;
3815;SDS011;1923;48.154;11.536;2023-05-07T13:12:03;2.57;;;1.57;;
3815;SDS011;1923;48.154;11.536;2023-05-07T13:14:32;2.20;;;1.47;;
3815;SDS011;1923;48.154;11.536;2023-05-07T13:17:01;1.80;;;1.30;;
3815;SDS011;1923;48.154;11.536;2023-05-07T13:19:29;3.00;;;1.33;;
3815;SDS011;1923;48.154;11.536;2023-05-07T13:21:57;1.60;;;1.50;;
3815;SDS011;1923;48.154;11.536;2023-05-07T13:24:25;1.90;;;1.43;;
3815;SDS011;1923;48.154;11.536;2023-05-07T13:26:53;2.97;;;1.60;;
3815;SDS011;1923;48.154;11.536;2023-05-07T13:29:21;1.47;;;1.33;;
3815;SDS011;1923;48.154;11.536;2023-05-07T13:31:54;2.40;;;1.40;;
3815;SDS011;1923;48.154;11.536;2023-05-07T13:34:25;1.60;;;1.50;;
3815;SDS011;1923;48.154;11.536;2023-05-07T13:36:53;3.73;;;1.60;;
3815;SDS011;1923;48.154;11.536;2023-05-07T13:39:21;2.60;;;1.57;;
3815;SDS011;1923;48.154;11.536;2023-05-07T13:41:49;1.73;;;1.37;;
3815;SDS011;1923;48.154;11.536;2023-05-07T13:44:17;1.73;;;1.20;;
3815;SDS011;1923;48.154;11.536;2023-05-07T13:46:45;2.23;;;1.30;;
3815;SDS011;1923;48.154;11.536;2023-05-07T13:49:13;1.67;;;1.50;;
3815;SDS011;1923;48.154;11.536;2023-05-07T13:51:42;1.90;;;1.80;;
3815;SDS011;1923;48.154;11.536;2023-05-07T13:54:10;2.20;;;1.57;;
3815;SDS011;1923;48.154;11.536;2023-05-07T13:56:38;2.00;;;1.40;;
3815;SDS011;1923;48.154;11.536;2023-05-07T13:59:06;2.70;;;1.97;;
3815;SDS011;1923;48.154;11.536;2023-05-07T14:01:35;1.57;;;1.47;;
3815;SDS011;1923;48.154;11.536;2023-05-07T14:04:03;2.30;;;1.87;;
3815;SDS011;1923;48.154;11.536;2023-05-07T14:06:31;2.90;;;1.50;;
3815;SDS011;1923;48.154;11.536;2023-05-07T14:09:01;2.10;;;1.70;;
3815;SDS011;1923;48.154;11.536;2023-05-07T14:11:30;1.57;;;1.40;;
3815;SDS011;1923;48.154;11.536;2023-05-07T14:14:01;1.90;;;1.67;;
3815;SDS011;1923;48.154;11.536;2023-05-07T14:16:29;2.87;;;2.10;;
3815;SDS011;1923;48.154;11.536;2023-05-07T14:18:57;2.00;;;1.50;;
3815;SDS011;1923;48.154;11.536;2023-05-07T14:21:25;3.33;;;2.07;;
3815;SDS011;1923;48.154;11.536;2023-05-07T14:23:53;2.57;;;1.83;;
3815;SDS011;1923;48.154;11.536;2023-05-07T14:26:24;2.83;;;1.60;;
3815;SDS011;1923;48.154;11.536;2023-05-07T14:28:53;3.20;;;1.87;;
3815;SDS011;1923;48.154;11.536;2023-05-07T14:31:23;2.13;;;1.93;;
3815;SDS011;1923;48.154;11.536;2023-05-07T14:33:52;2.93;;;2.20;;
3815;SDS011;1923;48.154;11.536;2023-05-07T14:36:20;2.20;;;1.90;;
3815;SDS011;1923;48.154;11.536;2023-05-07T14:38:49;6.20;;;2.30;;
3815;SDS011;1923;48.154;11.536;2023-05-07T14:41:17;1.90;;;1.80;;
3815;SDS011;1923;48.154;11.536;2023-05-07T14:43:46;4.60;;;2.03;;
3815;SDS011;1923;48.154;11.536;2023-05-07T14:46:16;3.23;;;2.03;;
3815;SDS011;1923;48.154;11.536;2023-05-07T14:48:44;2.70;;;1.70;;
3815;SDS011;1923;48.154;11.536;2023-05-07T14:51:13;2.47;;;1.90;;
3815;SDS011;1923;48.154;11.536;2023-05-07T14:53:41;2.20;;;2.00;;
3815;SDS011;1923;48.154;11.536;2023-05-07T14:56:09;2.13;;;1.90;;
3815;SDS011;1923;48.154;11.536;2023-05-07T14:58:37;2.17;;;1.87;;
3815;SDS011;1923;48.154;11.536;2023-05-07T15:01:07;3.60;;;2.00;;
3815;SDS011;1923;48.154;11.536;2023-05-07T15:03:35;2.80;;;2.57;;
3815;SDS011;1923;48.154;11.536;2023-05-07T15:06:03;2.67;;;2.00;;
3815;SDS011;1923;48.154;11.536;2023-05-07T15:08:31;2.60;;;2.40;;
3815;SDS011;1923;48.154;11.536;2023-05-07T15:10:59;3.50;;;2.43;;
3815;SDS011;1923;48.154;11.536;2023-05-07T15:13:27;2.40;;;2.13;;
3815;SDS011;1923;48.154;11.536;2023-05-07T15:15:56;3.57;;;2.17;;
3815;SDS011;1923;48.154;11.536;2023-05-07T15:18:25;4.00;;;2.20;;
3815;SDS011;1923;48.154;11.536;2023-05-07T15:20:54;3.30;;;2.37;;